Time;durP1;ratioP1;P1;durP2;ratioP2;P2;SDS_P1;SDS_P2;PMS_P1;PMS_P2;Temp;Humidity;BMP_temperature;BMP_pressure;BME280_temperature;BME280_humidity;BME280_pressure;Samples;Min_cycle;Max_cycle;Signal;HPM_P1;HPM_P2
2024/03/08 00:00:37;;;;;;;3.47;1.88;;;;;;;;;;2040815;28;20110;-50
2024/03/08 00:01:39;;;;;;;3.30;1.67;;;;;;;;;;2055555;28;20054;-50
2024/03/08 00:02:40;;;;;;;4.25;1.75;;;;;;;;;;2049337;28;20612;-54
2024/03/08 00:03:42;;;;;;;3.72;2.00;;;;;;;;;;2045552;28;20079;-52
2024/03/08 00:04:44;;;;;;;3.05;1.90;;;;;;;;;;2044651;28;20114;-51
2024/03/08 00:05:46;;;;;;;4.47;1.83;;;;;;;;;;2032739;29;20059;-50
2024/03/08 00:06:47;;;;;;;2.13;1.35;;;;;;;;;;2044444;28;20426;-50
2024/03/08 00:07:49;;;;;;;3.45;1.70;;;;;;;;;;2048030;28;20058;-49
2024/03/08 00:08:50;;;;;;;2.95;1.40;;;;;;;;;;2052987;28;20427;-49
2024/03/08 00:09:53;;;;;;;3.42;1.52;;;;;;;;;;2049371;28;20098;-50
2024/03/08 00:10:54;;;;;;;3.03;1.70;;;;;;;;;;2049425;28;20030;-51
2024/03/08 00:11:56;;;;;;;3.90;1.25;;;;;;;;;;2040101;29;20019;-50
2024/03/08 00:12:57;;;;;;;4.00;1.67;;;;;;;;;;2042996;28;20019;-50
2024/03/08 00:13:59;;;;;;;2.13;1.30;;;;;;;;;;2045125;28;20034;-50
2024/03/08 00:15:00;;;;;;;2.38;1.25;;;;;;;;;;2052130;28;20453;-51
2024/03/08 00:16:02;;;;;;;2.92;1.17;;;;;;;;;;2052123;28;20431;-50
2024/03/08 00:17:03;;;;;;;3.72;2.17;;;;;;;;;;2046165;29;20519;-49
2024/03/08 00:18:05;;;;;;;1.77;1.15;;;;;;;;;;2044529;28;20031;-50
2024/03/08 00:19:06;;;;;;;3.22;1.40;;;;;;;;;;2043537;28;20043;-49
2024/03/08 00:20:08;;;;;;;3.20;1.52;;;;;;;;;;2044714;29;20019;-51
2024/03/08 00:21:10;;;;;;;4.30;1.48;;;;;;;;;;2052304;28;20097;-50
2024/03/08 00:22:11;;;;;;;2.22;1.45;;;;;;;;;;2047140;28;20110;-50
2024/03/08 00:23:13;;;;;;;1.80;1.02;;;;;;;;;;2044689;28;20447;-49
2024/03/08 00:24:14;;;;;;;3.00;1.23;;;;;;;;;;2047714;28;20554;-49
2024/03/08 00:25:16;;;;;;;7.20;1.38;;;;;;;;;;2044797;28;20036;-49
2024/03/08 00:26:17;;;;;;;3.50;1.60;;;;;;;;;;2040607;29;20024;-50
2024/03/08 00:27:20;;;;;;;4.15;1.50;;;;;;;;;;2044891;29;20026;-51
2024/03/08 00:28:22;;;;;;;3.38;1.70;;;;;;;;;;2044259;28;20043;-52
2024/03/08 00:29:23;;;;;;;3.53;1.40;;;;;;;;;;2044665;29;20016;-52
2024/03/08 00:30:25;;;;;;;3.85;1.60;;;;;;;;;;2054035;28;20120;-50
2024/03/08 00:31:26;;;;;;;3.22;1.80;;;;;;;;;;2049076;28;20030;-50
2024/03/08 00:32:27;;;;;;;4.65;1.77;;;;;;;;;;2047107;28;20023;-50
2024/03/08 00:33:29;;;;;;;3.10;1.42;;;;;;;;;;2047135;28;20027;-51
2024/03/08 00:34:31;;;;;;;5.03;2.05;;;;;;;;;;2040819;29;20602;-51
2024/03/08 00:35:32;;;;;;;3.90;2.20;;;;;;;;;;2043753;28;20015;-49
2024/03/08 00:36:34;;;;;;;3.33;2.05;;;;;;;;;;2046560;28;20578;-48
2024/03/08 00:37:35;;;;;;;5.03;2.10;;;;;;;;;;2042669;29;20477;-49
2024/03/08 00:38:37;;;;;;;7.10;1.98;;;;;;;;;;2046372;29;20035;-48
2024/03/08 00:39:38;;;;;;;6.68;2.45;;;;;;;;;;2045778;29;20043;-49
2024/03/08 00:40:40;;;;;;;6.10;2.65;;;;;;;;;;2054822;28;20538;-49
2024/03/08 00:41:44;;;;;;;5.47;2.50;;;;;;;;;;2050145;28;20011;-49
2024/03/08 00:42:45;;;;;;;7.28;2.75;;;;;;;;;;2044478;28;20066;-49
2024/03/08 00:43:47;;;;;;;5.05;2.55;;;;;;;;;;2045248;28;20019;-49
2024/03/08 00:44:50;;;;;;;7.00;2.88;;;;;;;;;;2045782;28;20023;-49
2024/03/08 00:45:52;;;;;;;7.28;3.13;;;;;;;;;;2035364;29;20475;-49
2024/03/08 00:46:53;;;;;;;8.52;3.17;;;;;;;;;;2038990;29;20016;-50
2024/03/08 00:47:54;;;;;;;6.53;2.58;;;;;;;;;;2043498;28;20074;-50
2024/03/08 00:48:56;;;;;;;8.98;3.35;;;;;;;;;;2045684;28;20023;-50
2024/03/08 00:49:58;;;;;;;6.05;2.78;;;;;;;;;;2049876;28;20390;-50
2024/03/08 00:50:59;;;;;;;6.47;2.42;;;;;;;;;;2049642;28;20030;-50
2024/03/08 00:52:00;;;;;;;4.38;1.90;;;;;;;;;;2039669;29;20412;-50
2024/03/08 00:53:02;;;;;;;4.13;1.73;;;;;;;;;;2046157;28;20486;-48
2024/03/08 00:54:03;;;;;;;5.32;2.08;;;;;;;;;;2044634;29;20163;-50
2024/03/08 00:55:04;;;;;;;3.92;1.70;;;;;;;;;;2042088;28;20032;-49
2024/03/08 00:56:06;;;;;;;4.10;1.70;;;;;;;;;;2045770;28;20035;-48
2024/03/08 00:57:07;;;;;;;5.32;2.08;;;;;;;;;;2047696;29;20482;-50
2024/03/08 00:58:09;;;;;;;4.53;2.15;;;;;;;;;;2043562;28;20111;-49
2024/03/08 00:59:10;;;;;;;4.07;1.40;;;;;;;;;;2042667;28;20451;-50
2024/03/08 01:00:12;;;;;;;6.15;1.90;;;;;;;;;;2047260;29;20046;-49
2024/03/08 01:01:16;;;;;;;3.40;1.90;;;;;;;;;;2046890;28;20051;-49
2024/03/08 01:02:18;;;;;;;5.60;2.10;;;;;;;;;;2046238;28;20028;-49
2024/03/08 01:03:20;;;;;;;7.00;2.45;;;;;;;;;;2047011;28;20023;-50
2024/03/08 01:04:22;;;;;;;4.53;2.33;;;;;;;;;;2044378;28;20045;-50
2024/03/08 01:05:24;;;;;;;5.10;2.35;;;;;;;;;;2044851;28;20108;-49
2024/03/08 01:06:26;;;;;;;4.82;2.88;;;;;;;;;;2043687;28;20023;-49
2024/03/08 01:07:28;;;;;;;7.47;2.97;;;;;;;;;;2044935;28;20030;-49
2024/03/08 01:08:29;;;;;;;4.75;2.83;;;;;;;;;;2047191;28;20051;-49
2024/03/08 01:09:31;;;;;;;5.35;3.22;;;;;;;;;;2044557;28;20398;-49
2024/03/08 01:10:32;;;;;;;5.32;3.00;;;;;;;;;;2040823;29;20027;-48
2024/03/08 01:11:34;;;;;;;4.38;2.33;;;;;;;;;;2043789;28;20537;-49
2024/03/08 01:12:36;;;;;;;4.15;2.60;;;;;;;;;;2052950;28;20072;-50
2024/03/08 01:13:37;;;;;;;9.52;3.10;;;;;;;;;;2047548;29;20107;-50
2024/03/08 01:14:38;;;;;;;4.57;2.50;;;;;;;;;;2046062;28;20580;-49
2024/03/08 01:15:41;;;;;;;6.20;3.17;;;;;;;;;;2045189;29;20031;-49
2024/03/08 01:16:42;;;;;;;6.43;3.00;;;;;;;;;;2049569;28;20079;-49
2024/03/08 01:17:44;;;;;;;5.43;2.45;;;;;;;;;;2048703;28;20031;-48
2024/03/08 01:18:46;;;;;;;5.70;2.80;;;;;;;;;;2049225;29;20020;-50
2024/03/08 01:19:47;;;;;;;4.93;2.95;;;;;;;;;;2045858;29;20105;-48
2024/03/08 01:20:49;;;;;;;4.07;2.63;;;;;;;;;;2048459;29;20031;-49
2024/03/08 01:21:50;;;;;;;6.28;2.42;;;;;;;;;;2047529;29;20031;-49
2024/03/08 01:22:51;;;;;;;4.45;2.70;;;;;;;;;;2046490;28;20462;-51
2024/03/08 01:23:53;;;;;;;5.93;2.78;;;;;;;;;;2042064;28;20808;-49
2024/03/08 01:24:54;;;;;;;5.68;2.95;;;;;;;;;;2048228;29;20552;-49
2024/03/08 01:25:59;;;;;;;7.70;2.90;;;;;;;;;;2052887;28;20497;-48
2024/03/08 01:27:01;;;;;;;3.85;2.10;;;;;;;;;;2047285;28;20020;-49
2024/03/08 01:28:02;;;;;;;8.35;2.78;;;;;;;;;;2043890;29;20090;-49
2024/03/08 01:29:04;;;;;;;4.78;2.05;;;;;;;;;;2055150;28;20371;-49
2024/03/08 01:30:05;;;;;;;3.30;1.77;;;;;;;;;;2046978;28;20030;-49
2024/03/08 01:31:07;;;;;;;4.32;2.65;;;;;;;;;;2045835;29;20114;-49
2024/03/08 01:32:08;;;;;;;5.57;2.30;;;;;;;;;;2042462;28;20026;-49
2024/03/08 01:33:09;;;;;;;3.65;1.90;;;;;;;;;;2046167;29;20154;-49
2024/03/08 01:34:11;;;;;;;3.40;1.52;;;;;;;;;;2048869;28;20055;-49
2024/03/08 01:35:12;;;;;;;2.63;1.40;;;;;;;;;;2044037;28;20035;-50
2024/03/08 01:36:15;;;;;;;1.75;1.02;;;;;;;;;;2043949;29;20031;-50
2024/03/08 01:37:16;;;;;;;3.63;1.58;;;;;;;;;;2038215;29;20023;-50
2024/03/08 01:38:17;;;;;;;3.95;0.90;;;;;;;;;;2047176;29;20127;-50
2024/03/08 01:39:21;;;;;;;1.52;0.90;;;;;;;;;;2046816;28;20059;-49
2024/03/08 01:40:23;;;;;;;2.58;1.20;;;;;;;;;;2048257;28;20390;-51
2024/03/08 01:41:24;;;;;;;5.13;0.82;;;;;;;;;;2047030;28;20113;-51
2024/03/08 01:42:26;;;;;;;2.55;0.90;;;;;;;;;;2049336;28;20019;-50
2024/03/08 01:43:31;;;;;;;2.08;0.93;;;;;;;;;;2046841;28;20123;-51
2024/03/08 01:44:32;;;;;;;3.42;0.80;;;;;;;;;;2049349;28;20046;-49
2024/03/08 01:45:34;;;;;;;4.43;0.90;;;;;;;;;;2048385;29;20019;-50
2024/03/08 01:46:35;;;;;;;3.05;0.80;;;;;;;;;;2049194;28;20038;-51
2024/03/08 01:47:37;;;;;;;4.70;0.95;;;;;;;;;;2049173;28;20024;-50
2024/03/08 01:48:40;;;;;;;2.47;0.90;;;;;;;;;;2042002;29;20012;-50
2024/03/08 01:49:42;;;;;;;3.55;1.20;;;;;;;;;;2053895;28;20521;-50
2024/03/08 01:50:44;;;;;;;4.05;1.23;;;;;;;;;;2049550;28;20007;-50
2024/03/08 01:51:45;;;;;;;2.15;0.95;;;;;;;;;;2049825;28;20078;-50
2024/03/08 01:52:47;;;;;;;3.45;1.00;;;;;;;;;;2049685;28;20025;-51
2024/03/08 01:53:48;;;;;;;2.88;1.05;;;;;;;;;;2049761;28;20082;-49
2024/03/08 01:54:51;;;;;;;2.45;1.00;;;;;;;;;;2049738;29;20090;-50
2024/03/08 01:55:54;;;;;;;2.30;0.90;;;;;;;;;;2049686;28;20030;-51
2024/03/08 01:56:58;;;;;;;7.28;1.65;;;;;;;;;;2049640;28;20019;-51
2024/03/08 01:58:00;;;;;;;2.55;0.90;;;;;;;;;;2049660;28;20034;-51
2024/03/08 01:59:01;;;;;;;2.47;1.00;;;;;;;;;;2049017;28;20019;-50
2024/03/08 02:00:05;;;;;;;4.28;1.00;;;;;;;;;;2048796;29;20410;-50
2024/03/08 02:01:09;;;;;;;2.17;1.00;;;;;;;;;;2045331;29;20045;-50
2024/03/08 02:02:13;;;;;;;4.20;0.90;;;;;;;;;;2049760;28;20023;-51
2024/03/08 02:03:15;;;;;;;6.45;1.15;;;;;;;;;;2049654;28;20026;-51
2024/03/08 02:04:18;;;;;;;3.60;1.20;;;;;;;;;;2049287;28;20114;-50
2024/03/08 02:05:19;;;;;;;2.47;0.60;;;;;;;;;;2048697;28;20109;-50
2024/03/08 02:06:20;;;;;;;4.30;0.98;;;;;;;;;;2048916;28;20019;-50
2024/03/08 02:07:22;;;;;;;4.85;0.70;;;;;;;;;;2051223;28;20101;-50
2024/03/08 02:08:23;;;;;;;1.25;0.50;;;;;;;;;;2049599;28;20020;-50
2024/03/08 02:09:24;;;;;;;3.72;0.55;;;;;;;;;;2048687;28;20030;-50
2024/03/08 02:10:26;;;;;;;1.63;0.30;;;;;;;;;;2049017;28;20027;-51
2024/03/08 02:11:27;;;;;;;1.20;0.40;;;;;;;;;;2049111;29;20026;-49
2024/03/08 02:12:28;;;;;;;1.88;0.40;;;;;;;;;;2048773;28;20076;-50
2024/03/08 02:13:30;;;;;;;1.15;0.40;;;;;;;;;;2049024;29;20035;-50
2024/03/08 02:14:31;;;;;;;1.63;0.47;;;;;;;;;;2048806;28;20073;-50
2024/03/08 02:15:51;;;;;;;0.75;0.20;;;;;;;;;;2048648;28;20050;-50
2024/03/08 02:16:54;;;;;;;0.85;0.30;;;;;;;;;;2049701;29;20031;-50
2024/03/08 02:17:55;;;;;;;3.05;0.60;;;;;;;;;;2048884;28;20114;-51
2024/03/08 02:18:56;;;;;;;2.50;0.35;;;;;;;;;;2049469;28;20063;-51
2024/03/08 02:19:58;;;;;;;1.90;0.20;;;;;;;;;;2056968;28;20413;-50
2024/03/08 02:21:00;;;;;;;2.03;0.45;;;;;;;;;;2050579;28;20494;-50
2024/03/08 02:22:04;;;;;;;2.60;0.75;;;;;;;;;;2049471;29;20015;-50
2024/03/08 02:23:05;;;;;;;2.40;0.50;;;;;;;;;;2049225;28;20043;-51
2024/03/08 02:24:07;;;;;;;0.30;0.10;;;;;;;;;;2049165;28;20027;-50
2024/03/08 02:25:09;;;;;;;0.70;0.28;;;;;;;;;;2049267;28;20035;-51
2024/03/08 02:26:11;;;;;;;1.77;0.47;;;;;;;;;;2049353;28;20082;-50
2024/03/08 02:27:12;;;;;;;3.20;0.40;;;;;;;;;;2048625;28;20053;-50
2024/03/08 02:28:14;;;;;;;1.23;0.50;;;;;;;;;;2048841;29;20398;-51
2024/03/08 02:29:15;;;;;;;2.85;0.77;;;;;;;;;;2048542;28;20027;-49
2024/03/08 02:30:17;;;;;;;1.48;0.47;;;;;;;;;;2049480;28;20077;-49
2024/03/08 02:31:18;;;;;;;1.35;0.40;;;;;;;;;;2049507;28;20047;-50
2024/03/08 02:32:20;;;;;;;0.88;0.40;;;;;;;;;;2049155;28;20538;-49
2024/03/08 02:33:21;;;;;;;1.58;0.32;;;;;;;;;;2049108;29;20103;-50
2024/03/08 02:34:22;;;;;;;1.15;0.40;;;;;;;;;;2041836;28;20028;-50
2024/03/08 02:35:24;;;;;;;2.90;0.60;;;;;;;;;;2045600;28;20031;-50
2024/03/08 02:36:25;;;;;;;1.15;0.70;;;;;;;;;;2049368;29;20020;-50
2024/03/08 02:37:28;;;;;;;1.50;0.50;;;;;;;;;;2049244;28;20026;-51
2024/03/08 02:38:29;;;;;;;6.78;0.70;;;;;;;;;;2049167;28;20028;-50
2024/03/08 02:39:32;;;;;;;1.42;0.38;;;;;;;;;;2048548;29;20014;-50
2024/03/08 02:40:33;;;;;;;1.08;0.55;;;;;;;;;;2041066;29;20075;-50
2024/03/08 02:41:34;;;;;;;1.02;0.45;;;;;;;;;;2043657;29;20008;-50
2024/03/08 02:42:35;;;;;;;1.77;0.57;;;;;;;;;;2047024;28;20017;-50
2024/03/08 02:43:37;;;;;;;0.77;0.40;;;;;;;;;;2048221;28;20086;-50
2024/03/08 02:44:43;;;;;;;1.13;0.40;;;;;;;;;;2053719;28;20462;-50
2024/03/08 02:45:45;;;;;;;1.00;0.50;;;;;;;;;;2048563;29;20024;-49
2024/03/08 02:46:46;;;;;;;2.60;0.40;;;;;;;;;;2049169;28;20098;-51
2024/03/08 02:47:50;;;;;;;2.15;0.40;;;;;;;;;;2048368;28;20098;-51
2024/03/08 02:48:52;;;;;;;2.53;0.30;;;;;;;;;;2048649;28;20015;-49
2024/03/08 02:49:53;;;;;;;0.68;0.28;;;;;;;;;;2048505;28;20019;-50
2024/03/08 02:50:54;;;;;;;1.38;0.50;;;;;;;;;;2049165;28;20023;-49
2024/03/08 02:51:57;;;;;;;2.38;0.38;;;;;;;;;;2049284;28;20031;-49
2024/03/08 02:52:58;;;;;;;0.73;0.22;;;;;;;;;;2049141;28;20019;-49
2024/03/08 02:53:59;;;;;;;1.52;0.50;;;;;;;;;;2052917;28;20098;-50
2024/03/08 02:55:01;;;;;;;3.15;0.60;;;;;;;;;;2049275;28;20546;-49
2024/03/08 02:56:02;;;;;;;0.75;0.28;;;;;;;;;;2048330;29;20046;-48
2024/03/08 02:57:03;;;;;;;4.28;0.45;;;;;;;;;;2048349;28;20639;-51
2024/03/08 02:58:08;;;;;;;1.85;0.40;;;;;;;;;;2051653;28;20027;-50
2024/03/08 02:59:09;;;;;;;1.52;0.32;;;;;;;;;;2043171;28;20472;-51
2024/03/08 03:00:11;;;;;;;3.53;0.32;;;;;;;;;;2049150;28;20085;-50
2024/03/08 03:01:12;;;;;;;0.50;0.20;;;;;;;;;;2045547;29;20094;-51
2024/03/08 03:02:14;;;;;;;2.83;0.60;;;;;;;;;;2049120;28;20015;-51
2024/03/08 03:03:16;;;;;;;1.20;0.38;;;;;;;;;;2047996;28;20051;-50
2024/03/08 03:04:17;;;;;;;1.27;0.25;;;;;;;;;;2048356;28;20055;-50
2024/03/08 03:05:18;;;;;;;1.42;0.40;;;;;;;;;;2055711;28;20025;-49
2024/03/08 03:06:21;;;;;;;0.98;0.20;;;;;;;;;;2049034;29;20465;-50
2024/03/08 03:07:22;;;;;;;2.40;0.40;;;;;;;;;;2048827;28;20038;-50
2024/03/08 03:08:24;;;;;;;0.40;0.28;;;;;;;;;;2047600;28;20050;-50
2024/03/08 03:09:27;;;;;;;2.83;0.52;;;;;;;;;;2045505;28;20060;-50
2024/03/08 03:10:28;;;;;;;3.83;0.47;;;;;;;;;;2048892;28;20094;-49
2024/03/08 03:11:30;;;;;;;0.90;0.20;;;;;;;;;;2048860;29;20023;-49
2024/03/08 03:12:33;;;;;;;0.45;0.10;;;;;;;;;;2048589;28;20050;-50
2024/03/08 03:13:35;;;;;;;0.55;0.10;;;;;;;;;;2048969;28;20106;-51
2024/03/08 03:14:38;;;;;;;1.63;0.38;;;;;;;;;;2048621;28;20413;-49
2024/03/08 03:15:41;;;;;;;1.40;0.32;;;;;;;;;;2048872;28;20055;-50
2024/03/08 03:16:43;;;;;;;0.85;0.38;;;;;;;;;;2051309;28;20025;-50
2024/03/08 03:17:48;;;;;;;0.90;0.32;;;;;;;;;;2056988;28;20026;-50
2024/03/08 03:18:49;;;;;;;2.20;0.50;;;;;;;;;;2049594;28;20027;-51
2024/03/08 03:19:51;;;;;;;1.42;0.43;;;;;;;;;;2048291;28;20921;-50
2024/03/08 03:20:53;;;;;;;1.65;0.30;;;;;;;;;;2048305;29;20031;-49
2024/03/08 03:21:54;;;;;;;0.60;0.30;;;;;;;;;;2048214;28;20086;-49
2024/03/08 03:22:56;;;;;;;1.85;0.28;;;;;;;;;;2048089;28;20074;-50
2024/03/08 03:23:59;;;;;;;1.42;0.30;;;;;;;;;;2048374;29;20027;-49
2024/03/08 03:25:02;;;;;;;1.45;0.57;;;;;;;;;;2048415;28;20386;-49
2024/03/08 03:26:07;;;;;;;0.93;0.40;;;;;;;;;;2048897;28;20038;-49
2024/03/08 03:27:11;;;;;;;1.10;0.22;;;;;;;;;;2048724;28;20501;-49
2024/03/08 03:28:17;;;;;;;1.60;0.47;;;;;;;;;;2048624;28;20030;-49
2024/03/08 03:29:20;;;;;;;2.20;0.60;;;;;;;;;;2048310;29;20478;-50
2024/03/08 03:30:21;;;;;;;1.38;0.40;;;;;;;;;;2047979;28;20098;-50
2024/03/08 03:31:23;;;;;;;3.00;0.40;;;;;;;;;;2047963;28;20122;-49
2024/03/08 03:32:25;;;;;;;3.42;0.65;;;;;;;;;;2046788;28;20030;-49
2024/03/08 03:33:26;;;;;;;1.95;0.55;;;;;;;;;;2044368;28;20026;-49
2024/03/08 03:34:28;;;;;;;1.25;0.40;;;;;;;;;;2054635;28;20011;-50
2024/03/08 03:35:30;;;;;;;2.08;0.68;;;;;;;;;;2048789;29;20451;-50
2024/03/08 03:36:31;;;;;;;1.08;0.30;;;;;;;;;;2047739;28;20437;-50
2024/03/08 03:37:33;;;;;;;1.70;0.50;;;;;;;;;;2047900;29;20042;-49
2024/03/08 03:38:35;;;;;;;1.08;0.38;;;;;;;;;;2047290;29;20486;-49
2024/03/08 03:39:48;;;;;;;0.85;0.30;;;;;;;;;;2047931;28;20146;-50
2024/03/08 03:40:52;;;;;;;0.85;0.30;;;;;;;;;;2046401;28;20042;-50
2024/03/08 03:41:53;;;;;;;2.10;0.28;;;;;;;;;;2047621;29;20526;-48
2024/03/08 03:42:55;;;;;;;1.40;0.28;;;;;;;;;;2047335;28;20070;-49
2024/03/08 03:43:56;;;;;;;1.65;0.30;;;;;;;;;;2048197;29;20577;-48
2024/03/08 03:44:57;;;;;;;0.90;0.40;;;;;;;;;;2048588;28;20050;-51
2024/03/08 03:45:58;;;;;;;4.40;0.90;;;;;;;;;;2048814;28;20027;-50
2024/03/08 03:47:00;;;;;;;2.75;0.70;;;;;;;;;;2048648;29;20019;-50
2024/03/08 03:48:06;;;;;;;2.90;0.68;;;;;;;;;;2047915;28;20015;-50
2024/03/08 03:49:07;;;;;;;2.67;0.80;;;;;;;;;;2048058;28;20018;-50
2024/03/08 03:50:09;;;;;;;2.10;0.98;;;;;;;;;;2049593;28;20053;-49
2024/03/08 03:51:11;;;;;;;5.53;0.88;;;;;;;;;;2047139;28;20063;-50
2024/03/08 03:52:12;;;;;;;2.42;0.80;;;;;;;;;;2048151;29;20030;-50
2024/03/08 03:53:13;;;;;;;3.38;0.85;;;;;;;;;;2047804;28;20019;-49
2024/03/08 03:54:15;;;;;;;3.05;0.50;;;;;;;;;;2048593;28;20018;-50
2024/03/08 03:55:16;;;;;;;1.10;0.38;;;;;;;;;;2047703;29;20106;-48
2024/03/08 03:56:17;;;;;;;2.97;0.60;;;;;;;;;;2045278;29;20483;-50
2024/03/08 03:57:20;;;;;;;2.50;0.57;;;;;;;;;;2048176;28;20011;-50
2024/03/08 03:58:22;;;;;;;2.97;0.28;;;;;;;;;;2046367;28;20019;-50
2024/03/08 03:59:24;;;;;;;1.70;0.32;;;;;;;;;;2047976;28;20454;-49
2024/03/08 04:00:26;;;;;;;2.17;0.50;;;;;;;;;;2046504;28;20031;-49
2024/03/08 04:01:29;;;;;;;3.05;0.63;;;;;;;;;;2047216;28;20033;-49
2024/03/08 04:02:30;;;;;;;1.65;0.65;;;;;;;;;;2040839;29;20019;-50
2024/03/08 04:03:32;;;;;;;2.00;0.60;;;;;;;;;;2044207;28;20026;-50
2024/03/08 04:04:33;;;;;;;3.20;0.50;;;;;;;;;;2048576;29;20039;-49
2024/03/08 04:05:34;;;;;;;1.73;0.60;;;;;;;;;;2053508;28;20003;-49
2024/03/08 04:06:36;;;;;;;1.73;0.47;;;;;;;;;;2052101;28;20018;-48
2024/03/08 04:07:38;;;;;;;3.67;0.60;;;;;;;;;;2048064;29;20417;-50
2024/03/08 04:08:39;;;;;;;5.03;0.50;;;;;;;;;;2047928;29;20085;-50
2024/03/08 04:09:40;;;;;;;2.13;0.47;;;;;;;;;;2047797;28;20055;-49
2024/03/08 04:10:42;;;;;;;2.75;0.65;;;;;;;;;;2040740;29;20086;-50
2024/03/08 04:11:43;;;;;;;7.05;1.25;;;;;;;;;;2051996;28;20450;-49
2024/03/08 04:12:45;;;;;;;1.92;0.50;;;;;;;;;;2055732;28;20019;-50
2024/03/08 04:13:47;;;;;;;2.90;0.47;;;;;;;;;;2048467;28;20075;-49
2024/03/08 04:14:48;;;;;;;1.02;0.22;;;;;;;;;;2048333;29;20023;-49
2024/03/08 04:15:49;;;;;;;0.82;0.50;;;;;;;;;;2048672;28;20390;-51
2024/03/08 04:16:51;;;;;;;1.27;0.20;;;;;;;;;;2047683;29;20114;-50
2024/03/08 04:17:52;;;;;;;1.70;0.32;;;;;;;;;;2047747;28;20135;-50
2024/03/08 04:18:53;;;;;;;2.20;0.52;;;;;;;;;;2048060;28;20026;-50
2024/03/08 04:19:55;;;;;;;1.77;0.40;;;;;;;;;;2042996;29;20094;-50
2024/03/08 04:20:56;;;;;;;3.10;0.63;;;;;;;;;;2047912;29;20498;-50
2024/03/08 04:21:57;;;;;;;2.47;0.50;;;;;;;;;;2047946;29;20031;-50
2024/03/08 04:22:59;;;;;;;3.05;0.45;;;;;;;;;;2051308;28;20477;-51
2024/03/08 04:24:00;;;;;;;2.58;0.60;;;;;;;;;;2056651;28;20617;-49
2024/03/08 04:25:02;;;;;;;1.05;0.25;;;;;;;;;;2048430;28;20475;-50
2024/03/08 04:26:08;;;;;;;1.23;0.50;;;;;;;;;;2047791;29;20514;-48
2024/03/08 04:27:10;;;;;;;0.60;0.20;;;;;;;;;;2048505;28;20030;-49
2024/03/08 04:28:14;;;;;;;1.17;0.32;;;;;;;;;;2048269;28;20102;-50
2024/03/08 04:29:17;;;;;;;1.20;0.35;;;;;;;;;;2048500;28;20074;-51
2024/03/08 04:30:18;;;;;;;2.88;0.50;;;;;;;;;;2048673;28;20115;-49
2024/03/08 04:31:21;;;;;;;1.63;0.30;;;;;;;;;;2048520;28;20027;-51
2024/03/08 04:32:22;;;;;;;2.90;0.30;;;;;;;;;;2047534;28;20121;-50
2024/03/08 04:33:24;;;;;;;2.92;0.85;;;;;;;;;;2048041;29;20063;-50
2024/03/08 04:34:25;;;;;;;0.22;0.20;;;;;;;;;;2047827;28;20015;-51
2024/03/08 04:35:26;;;;;;;1.75;0.30;;;;;;;;;;2048098;29;20023;-51
2024/03/08 04:36:28;;;;;;;4.30;0.45;;;;;;;;;;2043176;29;20024;-50
2024/03/08 04:37:30;;;;;;;1.98;0.30;;;;;;;;;;2050721;28;20025;-50
2024/03/08 04:38:31;;;;;;;1.30;0.30;;;;;;;;;;2048801;28;20015;-48
2024/03/08 04:39:33;;;;;;;1.52;0.60;;;;;;;;;;2046287;28;20359;-48
2024/03/08 04:40:35;;;;;;;2.72;0.45;;;;;;;;;;2042633;28;20028;-52
2024/03/08 04:41:37;;;;;;;1.15;0.52;;;;;;;;;;2047285;28;21235;-49
2024/03/08 04:42:39;;;;;;;2.53;0.40;;;;;;;;;;2047588;29;20049;-50
2024/03/08 04:43:41;;;;;;;2.03;0.35;;;;;;;;;;2043930;28;20078;-51
2024/03/08 04:44:42;;;;;;;1.63;0.40;;;;;;;;;;2046999;29;20031;-51
2024/03/08 04:45:44;;;;;;;1.50;0.40;;;;;;;;;;2047160;28;20027;-51
2024/03/08 04:46:46;;;;;;;1.75;0.50;;;;;;;;;;2047514;28;20007;-51
2024/03/08 04:47:48;;;;;;;1.98;0.70;;;;;;;;;;2043483;29;20023;-48
2024/03/08 04:48:49;;;;;;;1.63;0.50;;;;;;;;;;2055825;28;20097;-51
2024/03/08 04:49:50;;;;;;;2.28;0.45;;;;;;;;;;2055763;28;20041;-51
2024/03/08 04:50:53;;;;;;;2.15;0.63;;;;;;;;;;2047431;28;20015;-51
2024/03/08 04:51:54;;;;;;;2.53;0.88;;;;;;;;;;2039939;29;20054;-49
2024/03/08 04:52:56;;;;;;;7.30;1.17;;;;;;;;;;2042175;29;20056;-49
2024/03/08 04:53:57;;;;;;;2.10;0.50;;;;;;;;;;2048131;28;20486;-50
2024/03/08 04:54:58;;;;;;;1.23;0.60;;;;;;;;;;2048508;28;20023;-49
2024/03/08 04:56:06;;;;;;;2.53;0.85;;;;;;;;;;2047899;29;20015;-49
2024/03/08 04:57:07;;;;;;;2.47;0.88;;;;;;;;;;2047706;28;20057;-51
2024/03/08 04:58:08;;;;;;;4.78;0.73;;;;;;;;;;2048458;28;20023;-48
2024/03/08 04:59:10;;;;;;;2.47;0.73;;;;;;;;;;2048366;28;20027;-49
2024/03/08 05:00:11;;;;;;;2.60;0.88;;;;;;;;;;2047899;28;20023;-50
2024/03/08 05:01:13;;;;;;;1.17;0.63;;;;;;;;;;2048315;29;20031;-51
2024/03/08 05:02:14;;;;;;;1.80;0.50;;;;;;;;;;2047800;28;20130;-50
2024/03/08 05:03:15;;;;;;;3.33;0.70;;;;;;;;;;2047813;29;20031;-50
2024/03/08 05:04:17;;;;;;;4.05;0.65;;;;;;;;;;2046217;29;20023;-50
2024/03/08 05:05:18;;;;;;;4.00;0.65;;;;;;;;;;2046525;28;20372;-51
2024/03/08 05:06:20;;;;;;;2.72;0.60;;;;;;;;;;2047307;29;20024;-50
2024/03/08 05:07:21;;;;;;;2.47;0.50;;;;;;;;;;2048010;28;20015;-48
2024/03/08 05:08:23;;;;;;;1.80;0.30;;;;;;;;;;2047212;28;20023;-51
2024/03/08 05:09:24;;;;;;;3.60;0.70;;;;;;;;;;2047572;29;20023;-49
2024/03/08 05:10:26;;;;;;;2.25;0.30;;;;;;;;;;2047774;28;20023;-50
2024/03/08 05:11:27;;;;;;;2.70;1.05;;;;;;;;;;2047548;28;20035;-52
2024/03/08 05:12:29;;;;;;;1.48;0.40;;;;;;;;;;2047912;28;20031;-52
2024/03/08 05:13:31;;;;;;;2.35;0.35;;;;;;;;;;2037076;29;20500;-51
2024/03/08 05:14:34;;;;;;;4.82;0.30;;;;;;;;;;2039674;29;20079;-50
2024/03/08 05:15:36;;;;;;;2.70;0.50;;;;;;;;;;2047742;29;20123;-50
2024/03/08 05:16:37;;;;;;;1.73;0.32;;;;;;;;;;2047371;28;20011;-49
2024/03/08 05:17:40;;;;;;;1.52;0.35;;;;;;;;;;2047168;29;20011;-47
2024/03/08 05:18:42;;;;;;;1.77;0.50;;;;;;;;;;2047329;29;20062;-49
2024/03/08 05:19:43;;;;;;;0.93;0.30;;;;;;;;;;2047409;28;20011;-50
2024/03/08 05:20:46;;;;;;;2.55;0.50;;;;;;;;;;2048169;28;20027;-50
2024/03/08 05:21:50;;;;;;;2.95;0.40;;;;;;;;;;2047920;28;20012;-51
2024/03/08 05:22:51;;;;;;;0.73;0.30;;;;;;;;;;2048555;28;20035;-50
2024/03/08 05:23:53;;;;;;;0.95;0.30;;;;;;;;;;2046888;28;20065;-48
2024/03/08 05:24:54;;;;;;;1.58;0.50;;;;;;;;;;2045549;28;20028;-50
2024/03/08 05:25:55;;;;;;;2.10;0.45;;;;;;;;;;2047829;28;20398;-51
2024/03/08 05:26:57;;;;;;;1.88;0.40;;;;;;;;;;2041959;28;20451;-49
2024/03/08 05:27:58;;;;;;;1.50;0.30;;;;;;;;;;2044559;28;20035;-49
2024/03/08 05:28:59;;;;;;;2.45;0.40;;;;;;;;;;2055510;28;20078;-49
2024/03/08 05:30:01;;;;;;;1.48;0.30;;;;;;;;;;2046309;28;20015;-48
2024/03/08 05:31:02;;;;;;;3.42;0.45;;;;;;;;;;2047373;28;20124;-49
2024/03/08 05:32:04;;;;;;;1.17;0.45;;;;;;;;;;2045024;29;20016;-49
2024/03/08 05:33:05;;;;;;;3.10;0.30;;;;;;;;;;2054449;28;20031;-50
2024/03/08 05:34:09;;;;;;;1.27;0.28;;;;;;;;;;2055092;28;20465;-50
2024/03/08 05:35:16;;;;;;;2.10;0.32;;;;;;;;;;2044884;29;20557;-48
2024/03/08 05:36:18;;;;;;;1.00;0.38;;;;;;;;;;2047762;29;20051;-50
2024/03/08 05:37:20;;;;;;;1.00;0.38;;;;;;;;;;2047637;29;20023;-49
2024/03/08 05:38:22;;;;;;;2.03;0.38;;;;;;;;;;2047961;29;20367;-49
2024/03/08 05:39:23;;;;;;;0.98;0.32;;;;;;;;;;2046277;29;20042;-50
2024/03/08 05:40:25;;;;;;;2.60;0.50;;;;;;;;;;2047769;28;20062;-51
2024/03/08 05:41:26;;;;;;;5.80;0.50;;;;;;;;;;2054936;28;20015;-49
2024/03/08 05:42:28;;;;;;;1.45;0.30;;;;;;;;;;2051425;28;20031;-49
2024/03/08 05:43:29;;;;;;;2.42;0.40;;;;;;;;;;2046795;28;20094;-49
2024/03/08 05:44:31;;;;;;;0.80;0.35;;;;;;;;;;2047073;29;20022;-49
2024/03/08 05:45:32;;;;;;;2.33;0.40;;;;;;;;;;2047512;29;20023;-49
2024/03/08 05:46:34;;;;;;;1.30;0.30;;;;;;;;;;2047721;28;20020;-48
2024/03/08 05:47:35;;;;;;;2.85;0.40;;;;;;;;;;2048431;29;20019;-51
2024/03/08 05:48:37;;;;;;;1.65;0.40;;;;;;;;;;2045783;28;20386;-49
2024/03/08 05:49:39;;;;;;;1.60;0.40;;;;;;;;;;2048524;28;20018;-50
2024/03/08 05:50:40;;;;;;;1.95;0.40;;;;;;;;;;2046556;28;20053;-50
2024/03/08 05:51:42;;;;;;;3.40;0.45;;;;;;;;;;2039645;29;20019;-49
2024/03/08 05:52:43;;;;;;;1.75;0.50;;;;;;;;;;2039899;29;20042;-49
2024/03/08 05:53:44;;;;;;;2.05;0.55;;;;;;;;;;2047479;28;20015;-49
2024/03/08 05:54:46;;;;;;;2.72;0.40;;;;;;;;;;2047937;29;20023;-49
2024/03/08 05:55:49;;;;;;;1.30;0.22;;;;;;;;;;2047662;28;20015;-52
2024/03/08 05:56:52;;;;;;;0.90;0.35;;;;;;;;;;2052012;28;20090;-51
2024/03/08 05:57:55;;;;;;;2.50;0.40;;;;;;;;;;2057375;28;20478;-49
2024/03/08 05:58:56;;;;;;;0.77;0.40;;;;;;;;;;2055556;28;20429;-50
2024/03/08 05:59:57;;;;;;;2.75;0.50;;;;;;;;;;2055962;28;20083;-50
2024/03/08 06:00:59;;;;;;;1.25;0.50;;;;;;;;;;2049917;28;20027;-51
2024/03/08 06:02:00;;;;;;;2.17;0.50;;;;;;;;;;2047110;28;20034;-51
2024/03/08 06:03:02;;;;;;;2.47;0.43;;;;;;;;;;2041927;29;20473;-51
2024/03/08 06:04:04;;;;;;;0.50;0.25;;;;;;;;;;2057364;28;20117;-49
2024/03/08 06:05:06;;;;;;;3.20;0.60;;;;;;;;;;2056659;28;20043;-49
2024/03/08 06:06:08;;;;;;;1.50;0.40;;;;;;;;;;2049224;28;20106;-50
2024/03/08 06:07:12;;;;;;;2.05;0.40;;;;;;;;;;2048075;28;20039;-50
2024/03/08 06:08:14;;;;;;;1.38;0.38;;;;;;;;;;2048988;28;20565;-50
2024/03/08 06:09:22;;;;;;;2.17;0.40;;;;;;;;;;2048890;28;20042;-51
2024/03/08 06:10:24;;;;;;;1.73;0.70;;;;;;;;;;2049581;28;20019;-48
2024/03/08 06:11:30;;;;;;;1.80;0.80;;;;;;;;;;2049562;28;20034;-49